sensor_id;sensor_type;location;lat;lon;timestamp;temperature;humidity
52439;DHT22;38359;53.150;6.504;2023-07-13T00:04:52;17.10;99.90
52439;DHT22;38359;53.150;6.504;2023-07-13T00:15:22;17.00;99.90
52439;DHT22;38359;53.150;6.504;2023-07-13T00:25:49;16.80;99.90
52439;DHT22;38359;53.150;6.504;2023-07-13T00:36:16;16.90;99.90
52439;DHT22;38359;53.150;6.504;2023-07-13T00:46:43;17.00;99.90
52439;DHT22;38359;53.150;6.504;2023-07-13T00:57:12;17.00;99.90
52439;DHT22;38359;53.150;6.504;2023-07-13T01:07:42;17.00;99.90
52439;DHT22;38359;53.150;6.504;2023-07-13T01:18:35;16.90;99.90
52439;DHT22;38359;53.150;6.504;2023-07-13T01:29:02;16.80;99.90
52439;DHT22;38359;53.150;6.504;2023-07-13T01:39:28;16.70;99.90
52439;DHT22;38359;53.150;6.504;2023-07-13T01:49:54;16.70;99.90
52439;DHT22;38359;53.150;6.504;2023-07-13T02:00:19;16.90;99.90
52439;DHT22;38359;53.150;6.504;2023-07-13T02:10:45;16.90;99.90
52439;DHT22;38359;53.150;6.504;2023-07-13T02:21:11;16.90;99.90
52439;DHT22;38359;53.150;6.504;2023-07-13T02:31:37;16.90;99.90
52439;DHT22;38359;53.150;6.504;2023-07-13T02:42:03;16.80;99.90
52439;DHT22;38359;53.150;6.504;2023-07-13T02:52:30;16.80;99.90
52439;DHT22;38359;53.150;6.504;2023-07-13T03:02:56;16.90;99.90
52439;DHT22;38359;53.150;6.504;2023-07-13T03:13:22;16.70;99.90
52439;DHT22;38359;53.150;6.504;2023-07-13T03:23:49;16.60;99.90
52439;DHT22;38359;53.150;6.504;2023-07-13T03:34:15;16.60;99.90
52439;DHT22;38359;53.150;6.504;2023-07-13T03:44:42;16.50;99.90
52439;DHT22;38359;53.150;6.504;2023-07-13T03:55:11;16.70;99.90
52439;DHT22;38359;53.150;6.504;2023-07-13T04:05:38;16.60;99.90
52439;DHT22;38359;53.150;6.504;2023-07-13T04:16:05;16.70;99.90
52439;DHT22;38359;53.150;6.504;2023-07-13T04:26:32;16.70;99.90
52439;DHT22;38359;53.150;6.504;2023-07-13T04:37:01;16.70;99.90
52439;DHT22;38359;53.150;6.504;2023-07-13T04:47:30;16.80;99.90
52439;DHT22;38359;53.150;6.504;2023-07-13T04:57:56;16.90;99.90
52439;DHT22;38359;53.150;6.504;2023-07-13T05:08:26;17.10;99.90
52439;DHT22;38359;53.150;6.504;2023-07-13T05:18:52;17.00;99.90
52439;DHT22;38359;53.150;6.504;2023-07-13T05:29:19;17.20;99.90
52439;DHT22;38359;53.150;6.504;2023-07-13T05:39:46;17.40;99.90
52439;DHT22;38359;53.150;6.504;2023-07-13T05:50:12;17.60;99.90
52439;DHT22;38359;53.150;6.504;2023-07-13T06:00:38;17.90;99.90
52439;DHT22;38359;53.150;6.504;2023-07-13T06:11:07;17.90;99.90
52439;DHT22;38359;53.150;6.504;2023-07-13T06:21:43;18.10;99.90
52439;DHT22;38359;53.150;6.504;2023-07-13T06:32:09;18.10;99.90
52439;DHT22;38359;53.150;6.504;2023-07-13T06:42:35;18.40;99.90
52439;DHT22;38359;53.150;6.504;2023-07-13T06:53:00;18.60;99.90
52439;DHT22;38359;53.150;6.504;2023-07-13T07:03:26;18.60;99.90
52439;DHT22;38359;53.150;6.504;2023-07-13T07:13:53;19.10;99.90
52439;DHT22;38359;53.150;6.504;2023-07-13T07:24:19;19.10;99.90
52439;DHT22;38359;53.150;6.504;2023-07-13T07:34:46;18.70;99.90
52439;DHT22;38359;53.150;6.504;2023-07-13T07:45:11;18.80;99.90
52439;DHT22;38359;53.150;6.504;2023-07-13T07:55:37;18.80;99.90
52439;DHT22;38359;53.150;6.504;2023-07-13T08:06:03;18.30;99.90
52439;DHT22;38359;53.150;6.504;2023-07-13T08:16:29;17.60;99.90
52439;DHT22;38359;53.150;6.504;2023-07-13T08:26:55;18.10;99.90
52439;DHT22;38359;53.150;6.504;2023-07-13T08:37:21;18.60;99.90
52439;DHT22;38359;53.150;6.504;2023-07-13T08:48:01;19.10;99.90
52439;DHT22;38359;53.150;6.504;2023-07-13T08:58:30;19.60;99.90
52439;DHT22;38359;53.150;6.504;2023-07-13T09:09:03;19.60;99.90
52439;DHT22;38359;53.150;6.504;2023-07-13T09:19:41;19.70;99.90
52439;DHT22;38359;53.150;6.504;2023-07-13T09:40:49;19.80;99.90
52439;DHT22;38359;53.150;6.504;2023-07-13T09:51:46;19.90;99.90
52439;DHT22;38359;53.150;6.504;2023-07-13T10:02:32;20.20;99.90
52439;DHT22;38359;53.150;6.504;2023-07-13T10:12:59;20.10;99.90
52439;DHT22;38359;53.150;6.504;2023-07-13T10:23:27;19.90;99.90
52439;DHT22;38359;53.150;6.504;2023-07-13T10:33:56;19.80;99.90
52439;DHT22;38359;53.150;6.504;2023-07-13T10:44:30;20.40;99.90
52439;DHT22;38359;53.150;6.504;2023-07-13T10:54:57;20.30;99.90
52439;DHT22;38359;53.150;6.504;2023-07-13T11:05:30;20.20;99.90
52439;DHT22;38359;53.150;6.504;2023-07-13T11:15:58;20.90;99.90
52439;DHT22;38359;53.150;6.504;2023-07-13T11:26:51;20.40;99.90
52439;DHT22;38359;53.150;6.504;2023-07-13T11:37:18;20.50;99.90
52439;DHT22;38359;53.150;6.504;2023-07-13T11:47:45;21.70;99.90
52439;DHT22;38359;53.150;6.504;2023-07-13T11:58:11;21.40;99.90
52439;DHT22;38359;53.150;6.504;2023-07-13T12:08:45;21.60;99.90
52439;DHT22;38359;53.150;6.504;2023-07-13T12:19:22;22.10;99.90
52439;DHT22;38359;53.150;6.504;2023-07-13T12:29:58;22.00;99.90
52439;DHT22;38359;53.150;6.504;2023-07-13T12:40:35;21.70;99.90
52439;DHT22;38359;53.150;6.504;2023-07-13T12:51:02;22.20;99.90
52439;DHT22;38359;53.150;6.504;2023-07-13T13:01:31;22.50;99.90
52439;DHT22;38359;53.150;6.504;2023-07-13T13:11:59;21.90;99.90
52439;DHT22;38359;53.150;6.504;2023-07-13T13:22:24;22.40;99.90
52439;DHT22;38359;53.150;6.504;2023-07-13T13:32:50;22.60;99.90
52439;DHT22;38359;53.150;6.504;2023-07-13T13:43:26;22.60;99.90
52439;DHT22;38359;53.150;6.504;2023-07-13T13:53:52;22.60;99.90
52439;DHT22;38359;53.150;6.504;2023-07-13T14:04:20;23.00;99.90
52439;DHT22;38359;53.150;6.504;2023-07-13T14:14:47;23.50;99.90
52439;DHT22;38359;53.150;6.504;2023-07-13T14:25:14;21.80;99.90
52439;DHT22;38359;53.150;6.504;2023-07-13T14:35:41;22.20;99.90
52439;DHT22;38359;53.150;6.504;2023-07-13T14:46:37;23.80;99.90
52439;DHT22;38359;53.150;6.504;2023-07-13T14:57:02;23.40;99.90
52439;DHT22;38359;53.150;6.504;2023-07-13T15:07:28;22.90;99.90
52439;DHT22;38359;53.150;6.504;2023-07-13T15:17:55;23.70;99.90
52439;DHT22;38359;53.150;6.504;2023-07-13T15:28:21;24.10;99.90
52439;DHT22;38359;53.150;6.504;2023-07-13T15:38:48;23.70;99.90
52439;DHT22;38359;53.150;6.504;2023-07-13T15:49:16;24.10;99.90
52439;DHT22;38359;53.150;6.504;2023-07-13T15:59:42;23.50;99.90
52439;DHT22;38359;53.150;6.504;2023-07-13T16:10:13;23.20;99.90
52439;DHT22;38359;53.150;6.504;2023-07-13T16:20:40;23.10;99.90
52439;DHT22;38359;53.150;6.504;2023-07-13T16:31:07;24.00;99.90
52439;DHT22;38359;53.150;6.504;2023-07-13T16:41:35;22.40;99.90
52439;DHT22;38359;53.150;6.504;2023-07-13T16:52:01;23.30;99.90
52439;DHT22;38359;53.150;6.504;2023-07-13T17:02:32;23.50;99.90
52439;DHT22;38359;53.150;6.504;2023-07-13T17:12:58;22.90;99.90
52439;DHT22;38359;53.150;6.504;2023-07-13T17:23:26;23.50;99.90
52439;DHT22;38359;53.150;6.504;2023-07-13T17:33:52;22.80;99.90
52439;DHT22;38359;53.150;6.504;2023-07-13T17:44:18;23.30;99.90
52439;DHT22;38359;53.150;6.504;2023-07-13T17:54:45;24.00;99.90
52439;DHT22;38359;53.150;6.504;2023-07-13T18:05:12;24.20;99.90
52439;DHT22;38359;53.150;6.504;2023-07-13T18:15:39;24.30;99.90
52439;DHT22;38359;53.150;6.504;2023-07-13T18:26:09;24.00;99.90
52439;DHT22;38359;53.150;6.504;2023-07-13T18:36:36;23.00;99.90
52439;DHT22;38359;53.150;6.504;2023-07-13T18:47:04;21.30;99.90
52439;DHT22;38359;53.150;6.504;2023-07-13T18:57:30;20.80;99.90
52439;DHT22;38359;53.150;6.504;2023-07-13T19:07:56;20.70;99.90
52439;DHT22;38359;53.150;6.504;2023-07-13T19:18:31;20.50;99.90
52439;DHT22;38359;53.150;6.504;2023-07-13T19:28:58;20.40;99.90
52439;DHT22;38359;53.150;6.504;2023-07-13T19:39:37;20.30;99.90
52439;DHT22;38359;53.150;6.504;2023-07-13T19:50:09;20.00;99.90
52439;DHT22;38359;53.150;6.504;2023-07-13T20:00:37;19.90;99.90
52439;DHT22;38359;53.150;6.504;2023-07-13T20:11:04;19.90;99.90
52439;DHT22;38359;53.150;6.504;2023-07-13T20:21:30;19.90;99.90
52439;DHT22;38359;53.150;6.504;2023-07-13T20:31:57;19.50;99.90
52439;DHT22;38359;53.150;6.504;2023-07-13T20:42:24;19.50;99.90
52439;DHT22;38359;53.150;6.504;2023-07-13T20:52:52;19.50;99.90
52439;DHT22;38359;53.150;6.504;2023-07-13T21:03:26;19.10;99.90
52439;DHT22;38359;53.150;6.504;2023-07-13T21:13:55;19.30;99.90
52439;DHT22;38359;53.150;6.504;2023-07-13T21:24:21;19.20;99.90
52439;DHT22;38359;53.150;6.504;2023-07-13T21:34:46;19.30;99.90
52439;DHT22;38359;53.150;6.504;2023-07-13T21:45:19;18.80;99.90
52439;DHT22;38359;53.150;6.504;2023-07-13T21:55:51;18.60;99.90
52439;DHT22;38359;53.150;6.504;2023-07-13T22:06:24;18.50;99.90
52439;DHT22;38359;53.150;6.504;2023-07-13T22:16:51;18.40;99.90
52439;DHT22;38359;53.150;6.504;2023-07-13T22:27:17;18.40;99.90
52439;DHT22;38359;53.150;6.504;2023-07-13T22:37:43;18.20;99.90
52439;DHT22;38359;53.150;6.504;2023-07-13T22:48:22;18.10;99.90
52439;DHT22;38359;53.150;6.504;2023-07-13T22:58:49;17.80;99.90
52439;DHT22;38359;53.150;6.504;2023-07-13T23:09:15;17.80;99.90
52439;DHT22;38359;53.150;6.504;2023-07-13T23:19:41;17.70;99.90
52439;DHT22;38359;53.150;6.504;2023-07-13T23:30:18;17.40;99.90
52439;DHT22;38359;53.150;6.504;2023-07-13T23:40:45;17.40;99.90
52439;DHT22;38359;53.150;6.504;2023-07-13T23:51:11;17.20;99.90
